createdAt,value
2019-04-16T00:00:23.258Z,93772.39
2019-04-16T00:02:57.032Z,93774.09
2019-04-16T00:05:39.620Z,93767.14
2019-04-16T00:08:26.643Z,93763.92
2019-04-16T00:10:59.883Z,93766.23
2019-04-16T00:13:30.324Z,93767.87
2019-04-16T00:15:59.113Z,93758.13
2019-04-16T00:18:27.547Z,93763.63
2019-04-16T00:21:10.022Z,93763.59
2019-04-16T00:23:38.524Z,93761.38
2019-04-16T00:26:08.114Z,93762.72
2019-04-16T00:28:36.543Z,93758.22
2019-04-16T00:31:05.848Z,93764.11
2019-04-16T00:33:34.352Z,93766.44
2019-04-16T00:36:02.774Z,93767.19
2019-04-16T00:38:40.574Z,93765.47
2019-04-16T00:41:02.234Z,93765.26
2019-04-16T00:43:30.727Z,93764.57
2019-04-16T00:45:59.235Z,93755.31
2019-04-16T00:48:27.657Z,93764.95
2019-04-16T00:50:56.175Z,93758.74
2019-04-16T00:53:24.624Z,93763.01
2019-04-16T00:55:53.066Z,93762.42
2019-04-16T00:58:21.485Z,93769.58
2019-04-16T01:00:50.235Z,93768.27
2019-04-16T01:03:18.685Z,93768.28
2019-04-16T01:05:47.111Z,93768.92
2019-04-16T01:08:15.551Z,93763.36
2019-04-16T01:10:44.105Z,93768.77
2019-04-16T01:13:12.622Z,93760.95
2019-04-16T01:15:41.118Z,93766.65
2019-04-16T01:18:09.545Z,93761.09
2019-04-16T01:20:40.416Z,93757.50
2019-04-16T01:23:08.135Z,93756.02
2019-04-16T01:25:36.674Z,93754.24
2019-04-16T01:28:06.779Z,93749.38
2019-04-16T01:30:37.208Z,93752.95
2019-04-16T01:33:07.365Z,93756.51
2019-04-16T01:35:51.787Z,93747.05
2019-04-16T01:38:27.692Z,93743.79
2019-04-16T01:41:01.851Z,93746.08
2019-04-16T01:43:30.375Z,93749.13
2019-04-16T01:46:01.489Z,93747.64
2019-04-16T01:48:29.027Z,93749.27
2019-04-16T01:50:57.558Z,93744.55
2019-04-16T01:53:25.999Z,93757.34
2019-04-16T01:55:57.029Z,93752.78
2019-04-16T01:58:24.661Z,93751.00
2019-04-16T02:00:53.298Z,93756.72
2019-04-16T02:03:21.880Z,93753.45
2019-04-16T02:05:54.599Z,93758.77
2019-04-16T02:08:20.575Z,93754.95
2019-04-16T02:10:49.095Z,93762.24
2019-04-16T02:13:17.578Z,93765.13
2019-04-16T02:15:46.106Z,93765.98
2019-04-16T02:18:14.613Z,93759.08
2019-04-16T02:20:43.049Z,93764.23
2019-04-16T02:23:13.495Z,93762.61
2019-04-16T02:25:41.847Z,93765.56
2019-04-16T02:28:10.277Z,93764.53
2019-04-16T02:30:39.838Z,93768.13
2019-04-16T02:33:08.591Z,93764.84
2019-04-16T02:35:37.047Z,93763.90
2019-04-16T02:38:10.474Z,93768.46
2019-04-16T02:40:36.216Z,93772.84
2019-04-16T02:43:06.995Z,93778.58
2019-04-16T02:45:34.883Z,93772.77
2019-04-16T02:48:03.441Z,93770.78
2019-04-16T02:50:39.975Z,93775.36
2019-04-16T02:53:26.173Z,93769.41
2019-04-16T02:55:56.302Z,93770.42
2019-04-16T02:58:26.598Z,93772.41
2019-04-16T03:00:56.967Z,93767.83
2019-04-16T03:03:29.852Z,93772.20
2019-04-16T03:06:01.046Z,93769.97
2019-04-16T03:08:28.648Z,93770.78
2019-04-16T03:10:57.226Z,93773.30
2019-04-16T03:13:26.823Z,93773.97
2019-04-16T03:15:57.026Z,93767.67
2019-04-16T03:18:27.171Z,93765.31
2019-04-16T03:20:56.630Z,93766.50
2019-04-16T03:23:25.127Z,93762.80
2019-04-16T03:25:53.560Z,93776.44
2019-04-16T03:28:23.599Z,93771.03
2019-04-16T03:30:52.479Z,93777.27
2019-04-16T03:33:20.963Z,93764.59
2019-04-16T03:35:49.479Z,93764.95
2019-04-16T03:38:18.012Z,93760.45
2019-04-16T03:40:46.464Z,93756.53
2019-04-16T03:43:14.882Z,93756.06
2019-04-16T03:45:43.394Z,93755.29
2019-04-16T03:48:11.869Z,93753.63
2019-04-16T03:50:40.402Z,93753.59
2019-04-16T03:53:08.838Z,93753.63
2019-04-16T03:55:37.339Z,93755.62
2019-04-16T03:58:07.197Z,93755.56
2019-04-16T04:00:36.076Z,93759.27
2019-04-16T04:03:04.504Z,93757.84
2019-04-16T04:05:34.970Z,93760.06
2019-04-16T04:08:03.396Z,93759.39
2019-04-16T04:10:36.810Z,93755.88
2019-04-16T04:13:04.761Z,93759.70
2019-04-16T04:15:32.375Z,93765.15
2019-04-16T04:18:00.803Z,93764.88
2019-04-16T04:20:29.295Z,93765.83
2019-04-16T04:22:57.949Z,93760.41
2019-04-16T04:25:26.331Z,93758.78
2019-04-16T04:27:57.510Z,93757.14
2019-04-16T04:30:28.805Z,93748.39
2019-04-16T04:32:57.299Z,93740.90
2019-04-16T04:35:25.747Z,93740.90
2019-04-16T04:37:54.298Z,93729.63
2019-04-16T04:40:22.735Z,93741.11
2019-04-16T04:42:51.153Z,93737.26
2019-04-16T04:45:19.654Z,93745.12
2019-04-16T04:47:51.178Z,93739.94
2019-04-16T04:50:18.523Z,93737.59
2019-04-16T04:52:46.961Z,93736.98
2019-04-16T04:55:15.650Z,93745.39
2019-04-16T04:57:44.080Z,93742.16
2019-04-16T05:00:12.846Z,93753.77
2019-04-16T05:02:43.768Z,93756.22
2019-04-16T05:05:24.092Z,93763.11
2019-04-16T05:07:49.494Z,93772.64
2019-04-16T05:10:17.916Z,93769.30
2019-04-16T05:12:46.454Z,93770.45
2019-04-16T05:15:14.938Z,93771.69
2019-04-16T05:17:43.542Z,93780.44
2019-04-16T05:20:14.869Z,93769.94
2019-04-16T05:22:42.309Z,93766.83
2019-04-16T05:25:10.886Z,93777.70
2019-04-16T05:27:41.323Z,93784.55
2019-04-16T05:30:09.817Z,93778.84
2019-04-16T05:32:38.256Z,93783.70
2019-04-16T05:35:10.146Z,93781.81
2019-04-16T05:37:37.989Z,93793.51
2019-04-16T05:40:08.237Z,93794.88
2019-04-16T05:42:36.664Z,93798.80
2019-04-16T05:45:06.674Z,93804.33
2019-04-16T05:47:35.156Z,93806.31
2019-04-16T05:50:03.890Z,93815.58
2019-04-16T05:52:35.954Z,93816.08
2019-04-16T05:55:07.040Z,93807.95
2019-04-16T05:57:37.210Z,93817.36
2019-04-16T06:00:10.461Z,93818.31
2019-04-16T06:02:43.175Z,93817.12
2019-04-16T06:05:12.316Z,93810.64
2019-04-16T06:07:40.784Z,93815.47
2019-04-16T06:10:10.248Z,93815.06
2019-04-16T06:12:43.653Z,93808.80
2019-04-16T06:15:30.692Z,93816.84
2019-04-16T06:18:17.771Z,93817.75
2019-04-16T06:20:49.433Z,93823.57
2019-04-16T06:23:34.471Z,93824.66
2019-04-16T06:26:17.089Z,93821.63
2019-04-16T06:29:02.133Z,93820.25
2019-04-16T06:31:32.194Z,93812.16
2019-04-16T06:34:02.291Z,93813.33
2019-04-16T06:36:35.176Z,93808.38
2019-04-16T06:39:09.628Z,93823.03
2019-04-16T06:41:47.859Z,93821.38
2019-04-16T06:44:14.660Z,93818.27
2019-04-16T06:46:44.784Z,93827.64
2019-04-16T06:49:23.598Z,93819.21
2019-04-16T06:52:16.084Z,93807.72
2019-04-16T06:54:54.195Z,93812.82
2019-04-16T06:57:26.926Z,93814.64
2019-04-16T07:00:07.196Z,93809.42
2019-04-16T07:03:02.305Z,93813.46
2019-04-16T07:05:36.101Z,93819.17
2019-04-16T07:08:09.161Z,93821.67
2019-04-16T07:10:44.627Z,93817.60
2019-04-16T07:13:11.251Z,93820.20
2019-04-16T07:15:39.694Z,93815.16
2019-04-16T07:18:08.153Z,93821.11
2019-04-16T07:20:36.660Z,93827.34
2019-04-16T07:23:05.160Z,93816.84
2019-04-16T07:25:39.761Z,93807.17
2019-04-16T07:28:05.489Z,93811.55
2019-04-16T07:30:39.186Z,93813.19
2019-04-16T07:33:10.752Z,93810.85
2019-04-16T07:35:55.915Z,93813.91
2019-04-16T07:38:35.211Z,93821.81
2019-04-16T07:41:19.794Z,93817.03
2019-04-16T07:44:10.967Z,93814.13
2019-04-16T07:46:44.202Z,93825.09
2019-04-16T07:49:26.222Z,93817.70
2019-04-16T07:52:12.194Z,93817.63
2019-04-16T07:54:58.154Z,93824.27
2019-04-16T07:57:26.884Z,93823.64
2019-04-16T07:59:55.344Z,93821.80
2019-04-16T08:02:23.918Z,93822.75
2019-04-16T08:04:52.396Z,93819.82
2019-04-16T08:07:21.370Z,93815.09
2019-04-16T08:09:50.013Z,93819.56
2019-04-16T08:12:29.850Z,93819.59
2019-04-16T08:14:48.693Z,93820.23
2019-04-16T08:17:17.123Z,93817.66
2019-04-16T08:19:49.026Z,93818.75
2019-04-16T08:22:16.654Z,93810.30
2019-04-16T08:24:46.896Z,93814.44
2019-04-16T08:27:19.033Z,93814.16
2019-04-16T08:29:45.601Z,93816.28
2019-04-16T08:32:15.995Z,93808.83
2019-04-16T08:34:44.374Z,93815.71
2019-04-16T08:37:12.805Z,93808.51
2019-04-16T08:39:41.255Z,93808.80
2019-04-16T08:42:09.724Z,93813.88
2019-04-16T08:44:38.467Z,93811.66
2019-04-16T08:47:11.542Z,93807.30
2019-04-16T08:49:37.127Z,93815.89
2019-04-16T08:52:09.856Z,93816.62
2019-04-16T08:54:35.933Z,93811.87
2019-04-16T08:57:04.514Z,93812.22
2019-04-16T08:59:33.491Z,93801.67
2019-04-16T09:02:01.942Z,93804.59
2019-04-16T09:04:34.115Z,93809.91
2019-04-16T09:07:11.605Z,93808.80
2019-04-16T09:09:38.475Z,93810.30
2019-04-16T09:12:09.411Z,93808.73
2019-04-16T09:14:39.662Z,93804.86
2019-04-16T09:17:12.279Z,93805.80
2019-04-16T09:19:42.713Z,93810.08
2019-04-16T09:22:15.745Z,93811.54
2019-04-16T09:25:01.115Z,93813.25
2019-04-16T09:27:40.255Z,93812.05
2019-04-16T09:30:19.937Z,93812.88
2019-04-16T09:33:00.415Z,93810.41
2019-04-16T09:35:30.579Z,93811.48
2019-04-16T09:38:00.758Z,93812.20
2019-04-16T09:40:39.918Z,93810.95
2019-04-16T09:43:17.603Z,93814.19
2019-04-16T09:45:42.974Z,93810.17
2019-04-16T09:48:11.433Z,93811.66
2019-04-16T09:50:46.347Z,93812.20
2019-04-16T09:53:10.011Z,93817.84
2019-04-16T09:55:38.522Z,93814.65
2019-04-16T09:58:11.725Z,93819.16
2019-04-16T10:00:42.023Z,93813.16
2019-04-16T10:03:15.018Z,93815.84
2019-04-16T10:05:43.469Z,93809.92
2019-04-16T10:08:12.642Z,93806.73
2019-04-16T10:10:41.910Z,93808.00
2019-04-16T10:13:10.434Z,93809.66
2019-04-16T10:15:39.059Z,93807.99
2019-04-16T10:18:07.539Z,93800.12
2019-04-16T10:20:35.980Z,93805.53
2019-04-16T10:23:06.153Z,93802.95
2019-04-16T10:25:34.843Z,93804.33
2019-04-16T10:28:05.666Z,93805.03
2019-04-16T10:30:39.000Z,93804.39
2019-04-16T10:33:07.453Z,93809.59
2019-04-16T10:35:35.906Z,93798.16
2019-04-16T10:38:06.121Z,93800.21
2019-04-16T10:40:39.093Z,93798.36
2019-04-16T10:43:12.117Z,93801.89
2019-04-16T10:45:42.225Z,93793.33
2019-04-16T10:48:27.666Z,93800.55
2019-04-16T10:50:57.857Z,93793.70
2019-04-16T10:53:44.083Z,93794.06
2019-04-16T10:56:30.793Z,93782.72
2019-04-16T10:59:00.877Z,93790.38
2019-04-16T11:01:35.187Z,93788.32
2019-04-16T11:04:20.693Z,93782.13
2019-04-16T11:06:53.554Z,93783.44
2019-04-16T11:09:22.104Z,93782.34
2019-04-16T11:11:50.580Z,93783.27
2019-04-16T11:14:19.075Z,93781.87
2019-04-16T11:16:49.187Z,93785.31
2019-04-16T11:19:17.780Z,93791.20
2019-04-16T11:21:46.279Z,93793.16
2019-04-16T11:24:15.761Z,93783.47
2019-04-16T11:26:44.879Z,93788.34
2019-04-16T11:29:13.335Z,93790.42
2019-04-16T11:31:41.862Z,93791.35
2019-04-16T11:34:11.711Z,93790.27
2019-04-16T11:36:40.277Z,93791.11
2019-04-16T11:39:10.529Z,93790.00
2019-04-16T11:41:39.191Z,93789.09
2019-04-16T11:44:15.572Z,93790.02
2019-04-16T11:46:38.054Z,93798.83
2019-04-16T11:49:06.573Z,93800.98
2019-04-16T11:51:35.027Z,93796.60
2019-04-16T11:54:03.509Z,93790.00
2019-04-16T11:56:31.921Z,93800.76
2019-04-16T11:59:00.490Z,93794.40
2019-04-16T12:01:48.940Z,93798.09
2019-04-16T12:04:28.079Z,93791.38
2019-04-16T12:07:06.010Z,93787.41
2019-04-16T12:09:35.667Z,93785.93
2019-04-16T12:12:24.109Z,93792.20
2019-04-16T12:15:00.788Z,93783.73
2019-04-16T12:17:42.844Z,93778.98
2019-04-16T12:20:25.625Z,93784.30
2019-04-16T12:23:10.940Z,93788.41
2019-04-16T12:25:43.926Z,93781.05
2019-04-16T12:28:14.023Z,93788.56
2019-04-16T12:31:00.296Z,93792.93
2019-04-16T12:33:33.250Z,93785.68
2019-04-16T12:36:19.430Z,93793.27
2019-04-16T12:39:07.687Z,93788.52
2019-04-16T12:41:37.814Z,93792.09
2019-04-16T12:44:10.802Z,93787.13
2019-04-16T12:46:40.942Z,93785.17
2019-04-16T12:49:26.918Z,93782.02
2019-04-16T12:51:56.976Z,93785.09
2019-04-16T12:54:43.220Z,93789.48
2019-04-16T12:57:14.510Z,93784.56
2019-04-16T12:59:48.649Z,93791.52
2019-04-16T13:02:19.813Z,93796.66
2019-04-16T13:04:52.674Z,93789.19
2019-04-16T13:07:34.841Z,93788.11
2019-04-16T13:10:11.705Z,93785.75
2019-04-16T13:12:50.539Z,93795.70
2019-04-16T13:15:23.395Z,93796.45
2019-04-16T13:17:53.449Z,93799.70
2019-04-16T13:20:29.321Z,93793.73
2019-04-16T13:23:14.485Z,93801.78
2019-04-16T13:26:00.045Z,93800.19
2019-04-16T13:28:28.682Z,93798.89
2019-04-16T13:30:57.114Z,93806.76
2019-04-16T13:33:25.863Z,93804.66
2019-04-16T13:35:54.387Z,93808.34
2019-04-16T13:38:24.444Z,93812.34
2019-04-16T13:40:54.017Z,93810.38
2019-04-16T13:43:27.369Z,93813.73
2019-04-16T13:45:58.250Z,93808.16
2019-04-16T13:48:36.826Z,93813.17
2019-04-16T13:51:12.652Z,93819.18
2019-04-16T13:53:38.832Z,93814.33
2019-04-16T13:56:23.981Z,93818.95
2019-04-16T13:58:59.238Z,93823.22
2019-04-16T14:01:45.073Z,93821.60
2019-04-16T14:04:10.747Z,93827.26
2019-04-16T14:06:39.167Z,93817.49
2019-04-16T14:09:08.743Z,93816.36
2019-04-16T14:11:37.938Z,93820.94
2019-04-16T14:14:07.625Z,93819.14
2019-04-16T14:16:36.829Z,93824.28
2019-04-16T14:19:06.762Z,93825.94
2019-04-16T14:21:35.608Z,93828.30
2019-04-16T14:24:04.113Z,93826.82
2019-04-16T14:26:32.530Z,93827.03
2019-04-16T14:29:05.533Z,93826.92
2019-04-16T14:31:31.333Z,93826.44
2019-04-16T14:34:03.923Z,93830.13
2019-04-16T14:36:32.395Z,93831.94
2019-04-16T14:39:06.770Z,93825.31
2019-04-16T14:41:32.684Z,93834.69
2019-04-16T14:44:15.484Z,93836.08
2019-04-16T14:46:43.916Z,93835.83
2019-04-16T14:49:15.065Z,93837.00
2019-04-16T14:51:42.603Z,93843.20
2019-04-16T14:54:15.859Z,93843.86
2019-04-16T14:56:48.910Z,93841.40
2019-04-16T14:59:35.686Z,93845.03
2019-04-16T15:02:18.303Z,93847.69
2019-04-16T15:05:03.335Z,93849.73
2019-04-16T15:07:33.468Z,93854.73
2019-04-16T15:10:19.734Z,93859.17
2019-04-16T15:12:55.633Z,93855.23
2019-04-16T15:15:34.545Z,93863.31
2019-04-16T15:18:20.817Z,93866.63
2019-04-16T15:21:11.968Z,93874.09
2019-04-16T15:23:40.901Z,93883.78
2019-04-16T15:26:23.443Z,93881.56
2019-04-16T15:29:08.573Z,93878.61
2019-04-16T15:31:54.816Z,93891.60
2019-04-16T15:34:24.968Z,93890.91
2019-04-16T15:36:55.256Z,93891.52
2019-04-16T15:39:25.338Z,93892.94
2019-04-16T15:42:16.281Z,93897.10
2019-04-16T15:44:43.607Z,93891.13
2019-04-16T15:47:14.935Z,93887.85
2019-04-16T15:49:49.681Z,93897.03
2019-04-16T15:52:22.944Z,93899.06
2019-04-16T15:54:55.721Z,93900.92
2019-04-16T15:57:31.868Z,93907.00
2019-04-16T16:00:10.960Z,93908.79
2019-04-16T16:02:57.607Z,93909.48
2019-04-16T16:05:30.828Z,93906.47
2019-04-16T16:08:03.751Z,93911.67
2019-04-16T16:10:45.108Z,93914.82
2019-04-16T16:13:10.331Z,93919.15
2019-04-16T16:15:40.493Z,93921.42
2019-04-16T16:18:09.009Z,93920.16
2019-04-16T16:20:37.545Z,93917.52
2019-04-16T16:23:06.135Z,93917.47
2019-04-16T16:25:34.600Z,93915.92
2019-04-16T16:28:03.148Z,93921.35
2019-04-16T16:30:31.639Z,93915.98
2019-04-16T16:33:00.103Z,93919.55
2019-04-16T16:35:28.646Z,93918.69
2019-04-16T16:37:57.178Z,93926.09
2019-04-16T16:40:25.728Z,93916.91
2019-04-16T16:42:54.469Z,93917.16
2019-04-16T16:45:24.675Z,93921.45
2019-04-16T16:47:53.216Z,93921.84
2019-04-16T16:50:21.714Z,93926.33
2019-04-16T16:52:54.871Z,93929.95
2019-04-16T16:55:28.073Z,93925.70
2019-04-16T16:58:14.552Z,93930.98
2019-04-16T17:00:56.398Z,93933.42
2019-04-16T17:03:28.761Z,93932.41
2019-04-16T17:05:59.181Z,93934.65
2019-04-16T17:08:30.204Z,93938.77
2019-04-16T17:11:13.989Z,93943.96
2019-04-16T17:13:29.045Z,93939.29
2019-04-16T17:15:57.558Z,93941.02
2019-04-16T17:18:26.010Z,93936.06
2019-04-16T17:20:54.454Z,93948.76
2019-04-16T17:23:25.624Z,93950.77
2019-04-16T17:25:56.993Z,93955.98
2019-04-16T17:28:23.519Z,93965.91
2019-04-16T17:30:52.030Z,93960.60
2019-04-16T17:33:20.532Z,93965.61
2019-04-16T17:35:49.138Z,93965.73
2019-04-16T17:38:17.602Z,93965.70
2019-04-16T17:41:02.879Z,93963.40
2019-04-16T17:44:00.352Z,93962.03
2019-04-16T17:46:27.266Z,93963.54
2019-04-16T17:49:09.430Z,93963.23
2019-04-16T17:51:42.305Z,93973.58
2019-04-16T17:54:27.716Z,93976.61
2019-04-16T17:57:01.180Z,93984.26
2019-04-16T17:59:47.529Z,93993.28
2019-04-16T18:02:33.840Z,93996.84
2019-04-16T18:05:10.015Z,94000.64
2019-04-16T18:07:56.460Z,94007.67
2019-04-16T18:10:33.948Z,94011.92
2019-04-16T18:13:07.622Z,94016.31
2019-04-16T18:15:53.279Z,94015.91
2019-04-16T18:18:23.375Z,94024.63
2019-04-16T18:20:58.724Z,94033.03
2019-04-16T18:23:31.288Z,94038.16
2019-04-16T18:26:01.512Z,94042.80
2019-04-16T18:28:49.523Z,94050.67
2019-04-16T18:31:23.209Z,94049.23
2019-04-16T18:33:51.435Z,94050.72
2019-04-16T18:36:21.682Z,94048.79
2019-04-16T18:39:03.186Z,94051.91
2019-04-16T18:41:38.368Z,94054.86
2019-04-16T18:44:25.015Z,94049.16
2019-04-16T18:46:55.101Z,94052.10
2019-04-16T18:49:28.278Z,94054.80
2019-04-16T18:51:56.765Z,94057.67
2019-04-16T18:54:25.534Z,94055.80
2019-04-16T18:56:54.185Z,94061.67
2019-04-16T18:59:22.796Z,94059.91
2019-04-16T19:01:52.993Z,94065.53
2019-04-16T19:04:21.507Z,94068.91
2019-04-16T19:06:50.158Z,94065.72
2019-04-16T19:09:20.810Z,94072.28
2019-04-16T19:11:48.873Z,94066.72
2019-04-16T19:14:17.476Z,94068.09
2019-04-16T19:16:46.053Z,94075.65
2019-04-16T19:19:14.644Z,94078.66
2019-04-16T19:21:43.155Z,94069.77
2019-04-16T19:24:11.735Z,94077.28
2019-04-16T19:26:40.336Z,94082.39
2019-04-16T19:29:13.135Z,94087.13
2019-04-16T19:31:39.095Z,94080.63
2019-04-16T19:34:10.278Z,94087.51
2019-04-16T19:36:37.900Z,94074.26
2019-04-16T19:39:10.260Z,94078.02
2019-04-16T19:41:41.050Z,94073.47
2019-04-16T19:44:08.277Z,94080.65
2019-04-16T19:46:37.064Z,94080.39
2019-04-16T19:49:05.941Z,94079.19
2019-04-16T19:51:34.506Z,94085.45
2019-04-16T19:54:02.938Z,94087.03
2019-04-16T19:56:33.623Z,94094.97
2019-04-16T19:59:02.592Z,94095.47
2019-04-16T20:01:31.343Z,94091.59
2019-04-16T20:04:00.306Z,94096.20
2019-04-16T20:06:29.176Z,94099.02
2019-04-16T20:08:57.889Z,94095.35
2019-04-16T20:11:26.411Z,94097.56
2019-04-16T20:13:54.853Z,94094.56
2019-04-16T20:16:23.317Z,94093.37
2019-04-16T20:18:51.861Z,94096.46
2019-04-16T20:21:20.317Z,94097.77
2019-04-16T20:23:48.816Z,94099.14
2019-04-16T20:26:17.303Z,94098.09
2019-04-16T20:28:48.609Z,94098.81
2019-04-16T20:31:16.093Z,94094.22
2019-04-16T20:33:44.597Z,94094.02
2019-04-16T20:36:13.041Z,94097.83
2019-04-16T20:38:41.542Z,94099.16
2019-04-16T20:41:10.095Z,94098.55
2019-04-16T20:43:38.567Z,94097.33
2019-04-16T20:46:07.141Z,94102.17
2019-04-16T20:48:35.630Z,94107.93
2019-04-16T20:51:04.561Z,94102.34
2019-04-16T20:53:33.682Z,94104.64
2019-04-16T20:56:02.222Z,94115.66
2019-04-16T20:58:32.058Z,94117.08
2019-04-16T21:01:02.210Z,94118.25
2019-04-16T21:03:31.460Z,94124.19
2019-04-16T21:06:00.296Z,94130.13
2019-04-16T21:08:28.741Z,94123.60
2019-04-16T21:10:59.560Z,94131.22
2019-04-16T21:13:27.457Z,94133.30
2019-04-16T21:15:57.226Z,94127.17
2019-04-16T21:18:26.219Z,94123.20
2019-04-16T21:20:54.688Z,94127.28
2019-04-16T21:23:23.208Z,94132.21
2019-04-16T21:25:51.661Z,94128.80
2019-04-16T21:28:24.463Z,94131.40
2019-04-16T21:30:54.624Z,94127.69
2019-04-16T21:33:33.549Z,94122.83
2019-04-16T21:36:06.525Z,94122.18
2019-04-16T21:38:45.228Z,94128.71
2019-04-16T21:41:14.515Z,94133.63
2019-04-16T21:43:43.000Z,94129.97
2019-04-16T21:46:11.452Z,94132.00
2019-04-16T21:48:39.925Z,94132.25
2019-04-16T21:51:08.473Z,94132.94
2019-04-16T21:53:36.905Z,94136.74
2019-04-16T21:56:08.174Z,94131.80
2019-04-16T21:58:35.662Z,94136.11
2019-04-16T22:01:05.820Z,94128.98
2019-04-16T22:03:41.882Z,94140.10
2019-04-16T22:06:06.469Z,94135.37
2019-04-16T22:08:34.887Z,94140.13
2019-04-16T22:11:03.992Z,94137.23
2019-04-16T22:13:32.473Z,94136.28
2019-04-16T22:16:00.960Z,94133.42
2019-04-16T22:18:29.647Z,94137.14
2019-04-16T22:20:58.137Z,94140.37
2019-04-16T22:23:26.688Z,94136.84
2019-04-16T22:25:57.135Z,94131.63
2019-04-16T22:28:25.379Z,94136.31
2019-04-16T22:30:53.803Z,94131.46
2019-04-16T22:33:22.345Z,94134.69
2019-04-16T22:35:50.771Z,94143.14
2019-04-16T22:38:19.220Z,94139.95
2019-04-16T22:40:55.002Z,94138.66
2019-04-16T22:43:27.143Z,94138.95
2019-04-16T22:46:03.334Z,94137.96
2019-04-16T22:48:31.758Z,94135.02
2019-04-16T22:51:00.242Z,94140.97
2019-04-16T22:53:28.753Z,94138.19
2019-04-16T22:55:58.090Z,94139.33
2019-04-16T22:58:28.187Z,94138.23
2019-04-16T23:01:01.417Z,94139.87
2019-04-16T23:03:30.043Z,94138.89
2019-04-16T23:06:00.914Z,94135.02
2019-04-16T23:08:28.710Z,94141.45
2019-04-16T23:10:57.144Z,94133.02
2019-04-16T23:13:25.600Z,94143.80
2019-04-16T23:15:54.025Z,94141.14
2019-04-16T23:18:22.479Z,94136.59
2019-04-16T23:20:50.972Z,94136.22
2019-04-16T23:23:19.476Z,94135.34
2019-04-16T23:25:47.910Z,94136.53
2019-04-16T23:28:16.600Z,94139.97
2019-04-16T23:30:48.017Z,94140.24
2019-04-16T23:33:15.219Z,94141.45
2019-04-16T23:35:44.681Z,94136.84
2019-04-16T23:38:13.184Z,94138.53
2019-04-16T23:40:43.939Z,94146.17
2019-04-16T23:43:29.641Z,94147.81
2019-04-16T23:46:06.513Z,94145.89
2019-04-16T23:48:47.867Z,94143.52
2019-04-16T23:51:28.651Z,94146.78
2019-04-16T23:54:14.709Z,94141.88
2019-04-16T23:56:45.053Z,94148.42
2019-04-16T23:59:17.670Z,94152.06
